Terminal Aerodrome Forecast
Issued by NWS Omaha/Valley, NE

Home | Current Version | Previous Version | Text Only | Print | Product List | Glossary Off
Versions: 1 2 3 4 5 6 7 8 9 10 11 12 13 14 15 16 17 18 19 20 21 22 23 24 25 26 27 28 29 30 31 32

163
FTUS43 KOAX 200213 AAA
TAFOFK
TAF AMD
KOFK 200213Z 2002/2024 16010KT P6SM VCTS OVC090CB
      TEMPO 2004/2006 3SM -TSRA OVC040CB
     FM200900 18006KT P6SM SCT200
     FM202200 14006KT P6SM SCT150=

USA.gov is the U.S. government's official web portal to all federal, state and local government web resources and services.